Time;durP1;ratioP1;P1;durP2;ratioP2;P2;SDS_P1;SDS_P2;PMS_P1;PMS_P2;Temp;Humidity;BMP_temperature;BMP_pressure;BME280_temperature;BME280_humidity;BME280_pressure;Samples;Min_cycle;Max_cycle;Signal;HPM_P1;HPM_P2
2021/12/25 00:01:25;;;;;;;20.23;2.67;;;;;;;;;;5073507;28;20410;-74
2021/12/25 00:03:52;;;;;;;20.30;2.30;;;;;;;;;;5073558;28;20421;-74
2021/12/25 00:06:18;;;;;;;34.73;3.17;;;;;;;;;;5071630;28;20851;-74
2021/12/25 00:08:44;;;;;;;29.20;2.60;;;;;;;;;;5073405;28;20401;-74
2021/12/25 00:11:11;;;;;;;19.17;2.17;;;;;;;;;;5073087;28;20453;-74
2021/12/25 00:13:38;;;;;;;23.43;3.03;;;13.40;52.20;;;;;;5073328;28;20428;-74
2021/12/25 00:16:04;;;;;;;27.17;2.57;;;13.20;53.50;;;;;;5071985;28;20414;-74
2021/12/25 00:18:30;;;;;;;23.07;2.40;;;13.50;52.10;;;;;;5072728;28;20417;-74
2021/12/25 00:20:55;;;;;;;24.70;2.53;;;13.30;52.90;;;;;;5073075;28;20793;-74
2021/12/25 00:23:23;;;;;;;25.60;2.57;;;13.30;52.10;;;;;;5073303;28;20567;-74
2021/12/25 00:25:55;;;;;;;25.93;2.40;;;;;;;;;;5071638;28;20187;-74
2021/12/25 00:29:27;;;;;;;18.60;2.20;;;;;;;;;;5072971;28;20418;-73
2021/12/25 00:36:11;;;;;;;43.17;4.23;;;;;;;;;;5072694;28;20442;-73
2021/12/25 00:38:38;;;;;;;24.13;2.43;;;;;;;;;;5072711;28;20421;-74
2021/12/25 00:41:04;;;;;;;21.77;2.47;;;13.40;51.80;;;;;;5072408;28;20404;-74
2021/12/25 00:43:30;;;;;;;20.00;2.57;;;13.50;52.00;;;;;;5072501;28;20436;-74
2021/12/25 00:45:56;;;;;;;29.30;2.90;;;;;;;;;;5070963;28;20426;-74
2021/12/25 00:48:22;;;;;;;26.87;2.67;;;13.40;51.10;;;;;;5072196;28;20179;-74
2021/12/25 00:50:48;;;;;;;25.10;2.67;;;;;;;;;;5072327;28;20491;-74
2021/12/25 00:53:14;;;;;;;26.45;2.78;;;;;;;;;;5071540;28;20202;-76
2021/12/25 00:55:40;;;;;;;19.80;2.20;;;13.20;51.10;;;;;;5072210;28;20166;-75
2021/12/25 00:58:06;;;;;;;24.07;2.47;;;;;;;;;;5072237;28;20401;-75
2021/12/25 01:00:32;;;;;;;38.63;3.10;;;;;;;;;;5071495;28;20171;-74
2021/12/25 01:02:58;;;;;;;23.03;2.80;;;;;;;;;;5070336;28;20515;-75
2021/12/25 01:05:24;;;;;;;26.67;2.97;;;;;;;;;;5072075;28;20417;-74
2021/12/25 01:07:50;;;;;;;23.60;2.63;;;;;;;;;;5071911;28;20424;-74
2021/12/25 01:10:18;;;;;;;17.30;2.50;;;12.80;56.90;;;;;;5071905;28;21035;-75
2021/12/25 01:15:21;;;;;;;25.53;3.83;;;13.10;55.20;;;;;;5071925;28;20512;-76
2021/12/25 01:30:49;;;;;;;27.37;2.87;;;;;;;;;;5071703;28;20198;-75
2021/12/25 01:49:16;;;;;;;17.57;2.30;;;;;;;;;;5071434;28;20444;-74
2021/12/25 01:51:42;;;;;;;28.40;3.20;;;;;;;;;;5069945;28;20424;-74
2021/12/25 01:54:08;;;;;;;23.80;2.60;;;;;;;;;;5071163;28;20901;-74
2021/12/25 01:56:34;;;;;;;24.60;2.90;;;;;;;;;;5070751;28;20421;-74
2021/12/25 01:59:00;;;;;;;23.63;3.10;;;;;;;;;;5070966;28;20401;-74
2021/12/25 02:01:26;;;;;;;17.98;2.47;;;;;;;;;;5071129;28;20755;-74
2021/12/25 02:03:52;;;;;;;14.83;2.17;;;;;;;;;;5071130;28;20187;-74
2021/12/25 02:06:18;;;;;;;28.87;2.90;;;;;;;;;;5070677;28;20490;-74
2021/12/25 02:08:44;;;;;;;39.30;2.90;;;12.60;56.20;;;;;;5071144;28;20862;-74
2021/12/25 02:11:11;;;;;;;24.00;2.33;;;12.80;55.40;;;;;;5070784;28;20455;-74
2021/12/25 02:13:41;;;;;;;28.80;3.30;;;12.80;55.20;;;;;;5070804;28;20491;-74
2021/12/25 02:16:13;;;;;;;45.23;4.37;;;;;;;;;;5069141;28;20414;-74
2021/12/25 02:19:00;;;;;;;27.77;2.90;;;12.80;55.50;;;;;;5070829;28;20444;-74
2021/12/25 02:21:37;;;;;;;21.20;2.50;;;;;;;;;;5069536;28;20421;-74
2021/12/25 02:24:04;;;;;;;26.33;3.33;;;;;;;;;;5070927;28;20468;-74
2021/12/25 02:26:31;;;;;;;14.13;2.30;;;12.70;58.70;;;;;;5070584;28;20470;-74
2021/12/25 02:28:57;;;;;;;22.27;3.13;;;12.60;58.90;;;;;;5070745;28;20414;-74
2021/12/25 02:31:23;;;;;;;22.20;2.50;;;;;;;;;;5069634;28;20463;-74
2021/12/25 02:33:49;;;;;;;24.37;2.90;;;12.90;56.40;;;;;;5070244;28;20202;-74
2021/12/25 02:36:16;;;;;;;28.27;2.93;;;12.80;57.30;;;;;;5070333;28;20412;-74
2021/12/25 02:38:43;;;;;;;27.10;3.47;;;;;;;;;;5070530;28;20517;-74
2021/12/25 02:41:09;;;;;;;20.17;2.20;;;12.60;58.20;;;;;;5072495;28;20187;-74
2021/12/25 02:43:35;;;;;;;23.77;2.80;;;;;;;;;;5072865;28;20436;-74
2021/12/25 02:46:03;;;;;;;23.73;2.43;;;;;;;;;;5074645;28;20409;-74
2021/12/25 02:48:30;;;;;;;19.43;3.33;;;12.30;61.10;;;;;;5074288;28;20416;-75
2021/12/25 02:50:56;;;;;;;23.03;2.97;;;12.60;58.30;;;;;;5074417;28;20476;-74
2021/12/25 02:53:22;;;;;;;25.15;2.70;;;12.70;57.10;;;;;;5073178;28;20436;-74
2021/12/25 02:55:49;;;;;;;25.50;2.87;;;;;;;;;;5074693;28;20643;-74
2021/12/25 02:58:19;;;;;;;19.00;2.20;;;12.80;55.90;;;;;;5073181;28;20410;-74
2021/12/25 03:00:47;;;;;;;23.83;2.43;;;;;;;;;;5074094;28;20413;-74
2021/12/25 03:03:13;;;;;;;21.57;2.47;;;;;;;;;;5074772;28;20536;-74
2021/12/25 03:05:39;;;;;;;25.23;3.13;;;;;;;;;;5074128;28;20538;-74
2021/12/25 03:08:06;;;;;;;11.80;1.92;;;;;;;;;;5074204;28;20411;-74
2021/12/25 03:10:34;;;;;;;22.73;3.05;;;;;;;;;;5074286;28;20202;-74
2021/12/25 03:15:51;;;;;;;22.88;2.50;;;;;;;;;;5063589;28;20417;-74
2021/12/25 03:18:23;;;;;;;27.73;2.78;;;;;;;;;;5073668;28;20183;-74
2021/12/25 03:20:50;;;;;;;15.10;2.05;;;;;;;;;;5074021;28;20163;-74
2021/12/25 03:23:19;;;;;;;18.73;1.97;;;12.90;55.30;;;;;;5073594;28;20213;-74
2021/12/25 03:25:46;;;;;;;21.65;2.30;;;;;;;;;;5073729;28;20406;-74
2021/12/25 03:28:12;;;;;;;15.73;2.20;;;;;;;;;;5073703;28;20229;-74
2021/12/25 03:30:39;;;;;;;26.03;2.40;;;;;;;;;;5073744;28;20546;-74
2021/12/25 03:33:11;;;;;;;25.85;2.30;;;12.50;57.70;;;;;;5072146;28;20491;-74
2021/12/25 03:35:37;;;;;;;22.07;2.90;;;;;;;;;;5073912;28;20604;-74
2021/12/25 03:38:05;;;;;;;23.60;2.30;;;12.70;55.80;;;;;;5073507;28;20398;-74
2021/12/25 03:40:31;;;;;;;18.17;2.40;;;12.90;55.20;;;;;;5072371;28;20414;-74
2021/12/25 03:42:56;;;;;;;26.83;2.53;;;13.00;54.90;;;;;;5071972;28;20869;-74
2021/12/25 03:45:23;;;;;;;22.87;2.17;;;;;;;;;;5073634;28;20447;-74
2021/12/25 03:47:51;;;;;;;25.00;2.40;;;13.00;54.10;;;;;;5073474;28;20292;-74
2021/12/25 03:53:24;;;;;;;24.03;2.30;;;12.90;55.10;;;;;;5074051;28;20435;-74
2021/12/25 03:58:35;;;;;;;14.83;1.80;;;;;;;;;;5073713;28;20746;-74
2021/12/25 04:01:22;;;;;;;21.43;2.23;;;13.00;54.00;;;;;;5073486;28;20394;-74
2021/12/25 04:04:02;;;;;;;24.70;2.40;;;12.70;55.20;;;;;;5071790;28;20495;-74
2021/12/25 04:06:28;;;;;;;24.83;2.63;;;12.90;54.90;;;;;;5071878;28;20429;-74
2021/12/25 04:08:53;;;;;;;18.77;2.00;;;12.90;55.60;;;;;;5073264;28;20889;-74
2021/12/25 04:11:28;;;;;;;29.60;2.77;;;;;;;;;;5073139;28;20203;-74
2021/12/25 04:13:55;;;;;;;28.83;2.90;;;;;;;;;;5072375;28;20532;-74
2021/12/25 04:16:21;;;;;;;20.77;2.50;;;;;;;;;;5072738;28;20396;-74
2021/12/25 04:18:47;;;;;;;20.43;2.70;;;;;;;;;;5073105;28;20433;-74
2021/12/25 04:21:13;;;;;;;13.18;2.03;;;;;;;;;;5072760;28;20413;-74
2021/12/25 04:23:41;;;;;;;14.20;1.80;;;;;;;;;;5072518;28;20195;-74
2021/12/25 04:26:08;;;;;;;38.40;3.47;;;;;;;;;;5071275;28;20417;-74
2021/12/25 05:06:07;;;;;;;41.17;4.35;;;;;;;;;;5072103;28;20394;-74
2021/12/25 05:08:33;;;;;;;23.77;2.88;;;;;;;;;;5071589;28;20179;-74
2021/12/25 05:10:59;;;;;;;16.38;2.10;;;;;;;;;;5070483;28;20491;-74
2021/12/25 05:13:25;;;;;;;17.02;2.22;;;;;;;;;;5071662;28;20194;-74
2021/12/25 05:15:51;;;;;;;16.08;2.25;;;;;;;;;;5071822;28;20167;-74
2021/12/25 05:18:17;;;;;;;23.88;2.47;;;;;;;;;;5071424;28;20178;-74
2021/12/25 05:20:43;;;;;;;19.98;1.92;;;;;;;;;;5071966;28;20183;-74
2021/12/25 05:23:09;;;;;;;28.10;2.83;;;;;;;;;;5071587;28;20207;-74
2021/12/25 05:25:36;;;;;;;25.25;2.10;;;12.50;56.10;;;;;;5071709;28;20489;-74
2021/12/25 05:28:03;;;;;;;20.30;2.47;;;12.30;57.40;;;;;;5071499;28;20171;-74
2021/12/25 05:30:30;;;;;;;19.48;2.28;;;12.10;58.90;;;;;;5071582;28;20290;-74
2021/12/25 05:32:57;;;;;;;21.85;2.38;;;;;;;;;;5071599;28;20197;-74
2021/12/25 05:35:23;;;;;;;21.15;2.80;;;;;;;;;;5071581;28;20665;-74
2021/12/25 05:37:56;;;;;;;37.85;4.35;;;;;;;;;;5071194;28;20175;-74
2021/12/25 05:40:23;;;;;;;23.13;3.03;;;;;;;;;;5071495;28;20162;-74
2021/12/25 05:42:50;;;;;;;26.20;2.90;;;;;;;;;;5071505;28;20196;-74
2021/12/25 05:45:16;;;;;;;20.52;2.47;;;;;;;;;;5071483;28;20432;-74
2021/12/25 05:47:42;;;;;;;22.10;2.33;;;;;;;;;;5071117;28;20639;-74
2021/12/25 05:50:08;;;;;;;22.43;2.37;;;;;;;;;;5071290;28;20553;-74
2021/12/25 05:52:34;;;;;;;24.08;2.75;;;;;;;;;;5069877;28;20915;-74
2021/12/25 05:55:00;;;;;;;25.07;2.60;;;;;;;;;;5071174;28;20175;-74
2021/12/25 05:57:26;;;;;;;14.83;2.23;;;;;;;;;;5069629;28;20437;-74
2021/12/25 05:59:52;;;;;;;17.65;2.70;;;;;;;;;;5071240;28;20401;-74
2021/12/25 06:02:18;;;;;;;23.40;3.10;;;;;;;;;;5070895;28;20280;-74
2021/12/25 06:04:44;;;;;;;31.52;3.15;;;;;;;;;;5069709;28;20458;-74
2021/12/25 06:07:10;;;;;;;22.48;2.10;;;;;;;;;;5070558;28;20694;-74
2021/12/25 06:09:37;;;;;;;24.95;2.65;;;;;;;;;;5071016;28;20580;-74
2021/12/25 06:12:04;;;;;;;23.25;2.60;;;;;;;;;;5070857;28;20206;-74
2021/12/25 06:14:30;;;;;;;27.98;3.00;;;12.10;55.60;;;;;;5071108;28;20630;-74
2021/12/25 06:16:56;;;;;;;30.67;3.20;;;12.30;55.30;;;;;;5070271;28;20186;-74
2021/12/25 06:19:22;;;;;;;31.45;2.83;;;12.50;53.20;;;;;;5070806;28;20205;-74
2021/12/25 06:21:47;;;;;;;22.27;2.60;;;12.40;53.00;;;;;;5070865;28;20673;-74
2021/12/25 06:24:15;;;;;;;18.43;2.37;;;;;;;;;;5071109;28;20615;-74
2021/12/25 06:26:41;;;;;;;13.50;2.10;;;;;;;;;;5070685;28;20590;-74
2021/12/25 06:29:07;;;;;;;16.35;2.25;;;;;;;;;;5070995;28;20187;-74
2021/12/25 06:31:33;;;;;;;16.55;2.38;;;;;;;;;;5071034;28;20511;-74
2021/12/25 06:33:59;;;;;;;24.52;2.55;;;;;;;;;;5069563;28;20177;-74
2021/12/25 06:36:25;;;;;;;26.48;2.47;;;;;;;;;;5069251;28;20175;-74
2021/12/25 06:38:51;;;;;;;25.20;2.67;;;;;;;;;;5069588;28;20270;-74
2021/12/25 06:41:17;;;;;;;25.50;2.65;;;;;;;;;;5070382;28;20445;-74
2021/12/25 06:43:43;;;;;;;15.40;2.03;;;;;;;;;;5069781;28;20202;-74
2021/12/25 06:46:09;;;;;;;44.65;3.88;;;;;;;;;;5069933;28;20181;-75
2021/12/25 06:48:36;;;;;;;27.30;3.15;;;;;;;;;;5070614;28;20242;-75
2021/12/25 06:51:02;;;;;;;25.17;2.63;;;12.20;53.10;;;;;;5068925;28;20225;-75
2021/12/25 06:53:28;;;;;;;26.77;2.88;;;12.30;52.50;;;;;;5070673;28;20744;-75
2021/12/25 06:55:54;;;;;;;29.17;2.87;;;;;;;;;;5070195;28;20198;-74
2021/12/25 06:58:20;;;;;;;24.80;2.45;;;;;;;;;;5070626;28;20182;-74
2021/12/25 07:00:46;;;;;;;24.63;2.47;;;;;;;;;;5070640;28;20171;-74
2021/12/25 07:03:12;;;;;;;25.60;2.30;;;;;;;;;;5070773;28;20420;-73
2021/12/25 07:05:38;;;;;;;15.10;2.03;;;;;;;;;;5068890;28;20182;-75
2021/12/25 07:08:04;;;;;;;26.47;2.50;;;;;;;;;;5070206;28;20885;-75
2021/12/25 07:10:30;;;;;;;26.75;3.05;;;;;;;;;;5069714;28;20509;-74
2021/12/25 07:12:56;;;;;;;17.83;2.17;;;;;;;;;;5070210;28;20322;-74
2021/12/25 07:15:22;;;;;;;16.03;1.90;;;;;;;;;;5070529;28;20265;-75
2021/12/25 07:17:48;;;;;;;27.83;2.57;;;;;;;;;;5068871;28;20721;-75
2021/12/25 07:20:14;;;;;;;19.03;2.10;;;;;;;;;;5070533;28;20405;-75
2021/12/25 07:22:40;;;;;;;33.75;3.15;;;;;;;;;;5065110;28;20901;-75
2021/12/25 07:25:07;;;;;;;24.95;2.58;;;11.90;55.90;;;;;;5053453;28;20168;-75
2021/12/25 07:27:33;;;;;;;29.67;2.47;;;;;;;;;;5063619;28;20193;-73
2021/12/25 07:30:02;;;;;;;28.15;2.75;;;;;;;;;;5074084;28;20563;-75
2021/12/25 07:32:28;;;;;;;38.60;3.50;;;;;;;;;;5063958;28;20207;-75
2021/12/25 07:34:54;;;;;;;75.90;4.30;;;;;;;;;;5103565;22;20493;-78
2021/12/25 07:37:20;;;;;;;33.83;2.45;;;;;;;;;;5052159;28;20905;-78
2021/12/25 07:39:46;;;;;;;59.72;3.47;;;;;;;;;;5051265;28;20182;-78
2021/12/25 07:42:12;;;;;;;49.35;2.85;;;12.30;55.80;;;;;;5051865;28;20543;-78
2021/12/25 07:44:38;;;;;;;40.77;3.47;;;;;;;;;;5048183;28;20644;-79
2021/12/25 07:47:09;;;;;;;41.28;2.92;;;;;;;;;;5033094;28;20947;-78
2021/12/25 07:49:35;;;;;;;20.58;1.98;;;;;;;;;;5031632;28;20259;-78
2021/12/25 07:52:01;;;;;;;36.53;2.35;;;;;;;;;;5033147;28;20267;-79
2021/12/25 07:54:27;;;;;;;32.58;2.58;;;;;;;;;;5032902;28;20653;-79
2021/12/25 07:56:54;;;;;;;21.77;2.23;;;;;;;;;;5032976;28;20267;-78
2021/12/25 07:59:20;;;;;;;30.70;2.80;;;12.40;56.00;;;;;;5031635;28;20420;-78
2021/12/25 08:01:46;;;;;;;19.20;2.30;;;12.40;56.60;;;;;;5033286;28;20230;-78
2021/12/25 08:04:12;;;;;;;51.67;3.97;;;;;;;;;;5033414;28;20683;-78
2021/12/25 08:06:39;;;;;;;39.10;3.00;;;;;;;;;;5032855;28;20303;-78
2021/12/25 08:09:06;;;;;;;44.70;3.13;;;;;;;;;;5032903;28;20199;-78
2021/12/25 08:11:32;;;;;;;33.42;2.33;;;;;;;;;;5032615;28;20196;-79
2021/12/25 08:13:58;;;;;;;45.77;3.03;;;12.50;56.70;;;;;;5032408;28;20295;-79
2021/12/25 08:16:24;;;;;;;29.47;2.40;;;;;;;;;;5032906;28;20530;-79
2021/12/25 08:18:50;;;;;;;39.40;3.00;;;;;;;;;;5031929;28;20478;-79
2021/12/25 08:21:16;;;;;;;13.77;1.67;;;;;;;;;;5028957;28;20415;-81
2021/12/25 08:23:43;;;;;;;15.70;2.37;;;12.40;57.10;;;;;;5037316;28;20419;-78
2021/12/25 08:26:09;;;;;;;63.40;3.63;;;12.10;59.20;;;;;;5042946;28;20435;-78
2021/12/25 08:28:34;;;;;;;33.50;2.63;;;12.00;59.30;;;;;;5050734;28;20413;-78
2021/12/25 08:31:01;;;;;;;61.57;3.67;;;;;;;;;;5043026;28;20828;-79
2021/12/25 08:33:27;;;;;;;50.87;3.47;;;11.80;61.40;;;;;;5051408;28;20631;-78
2021/12/25 08:35:53;;;;;;;46.57;3.03;;;;;;;;;;5050801;28;20964;-78
2021/12/25 08:38:19;;;;;;;27.63;2.40;;;;;;;;;;5052102;28;20460;-78
2021/12/25 08:40:45;;;;;;;29.23;3.07;;;11.00;68.70;;;;;;5055705;28;20423;-79
2021/12/25 08:43:11;;;;;;;35.07;3.17;;;11.10;68.50;;;;;;5049563;28;20433;-79
2021/12/25 08:48:08;;;;;;;31.53;2.40;;;;;;;;;;5035644;28;20191;-78
2021/12/25 08:50:34;;;;;;;35.40;2.80;;;;;;;;;;5035556;28;20593;-78
2021/12/25 08:53:00;;;;;;;31.27;3.37;;;;;;;;;;5040762;28;20586;-78
2021/12/25 08:55:26;;;;;;;27.13;3.10;;;;;;;;;;5033358;28;20431;-78
2021/12/25 08:57:53;;;;;;;30.90;2.80;;;;;;;;;;5032875;28;20399;-78
2021/12/25 09:00:19;;;;;;;37.63;3.73;;;;;;;;;;5032739;28;20408;-78
2021/12/25 09:02:46;;;;;;;27.20;2.90;;;12.10;61.60;;;;;;5032841;28;20407;-79
2021/12/25 09:05:12;;;;;;;32.50;3.40;;;12.50;59.20;;;;;;5032879;28;20435;-78
2021/12/25 09:07:38;;;;;;;29.37;2.50;;;12.60;58.20;;;;;;5049203;28;20509;-78
2021/12/25 09:10:04;;;;;;;23.97;2.50;;;12.80;57.20;;;;;;5052782;28;20199;-78
2021/12/25 09:12:32;;;;;;;28.77;2.93;;;12.80;56.70;;;;;;5052871;28;20184;-78
2021/12/25 09:14:58;;;;;;;27.23;2.50;;;12.90;57.20;;;;;;5052766;28;20471;-78
2021/12/25 09:17:24;;;;;;;33.53;2.90;;;;;;;;;;5052245;28;20406;-78
2021/12/25 09:19:50;;;;;;;35.00;3.10;;;;;;;;;;5052329;28;20180;-78
2021/12/25 09:22:16;;;;;;;37.50;3.50;;;;;;;;;;5052034;28;20410;-80
2021/12/25 09:24:42;;;;;;;22.83;2.27;;;;;;;;;;5036264;28;20442;-79
2021/12/25 09:27:08;;;;;;;18.40;2.50;;;;;;;;;;5033338;28;20417;-79
2021/12/25 09:29:34;;;;;;;27.20;2.97;;;13.30;56.90;;;;;;5033952;28;20536;-79
2021/12/25 09:32:00;;;;;;;26.50;2.93;;;;;;;;;;5034381;28;20415;-79
2021/12/25 09:34:26;;;;;;;33.83;2.70;;;13.40;55.60;;;;;;5032578;28;20422;-78
2021/12/25 09:36:52;;;;;;;24.43;2.63;;;;;;;;;;5033024;28;20837;-78
2021/12/25 09:39:18;;;;;;;27.77;2.63;;;;;;;;;;5032392;28;20184;-78
2021/12/25 09:41:44;;;;;;;25.73;2.20;;;;;;;;;;5032894;28;20403;-80
2021/12/25 09:44:10;;;;;;;26.13;2.90;;;13.30;57.50;;;;;;5032492;28;20403;-79
2021/12/25 09:46:36;;;;;;;38.83;4.00;;;;;;;;;;5031690;28;20443;-79
2021/12/25 09:49:02;;;;;;;27.87;2.80;;;13.30;57.90;;;;;;5031362;28;20466;-79
2021/12/25 09:51:29;;;;;;;33.60;3.17;;;;;;;;;;5032042;28;20450;-78
2021/12/25 09:54:01;;;;;;;33.60;3.57;;;;;;;;;;5032271;28;20438;-78
2021/12/25 09:56:28;;;;;;;29.20;3.17;;;13.70;56.70;;;;;;5032330;28;20446;-78
2021/12/25 09:58:54;;;;;;;26.60;2.93;;;13.70;56.40;;;;;;5049513;28;20422;-78
2021/12/25 10:01:56;;;;;;;41.53;3.40;;;13.70;56.50;;;;;;5036476;28;20427;-78
2021/12/25 10:04:45;;;;;;;49.85;3.55;;;13.90;57.10;;;;;;4970649;28;20196;-78
2021/12/25 10:07:29;;;;;;;47.63;4.33;;;14.00;56.60;;;;;;4970749;28;20187;-78
2021/12/25 10:10:15;;;;;;;26.20;2.87;;;13.90;56.90;;;;;;4971344;28;20972;-78
2021/12/25 10:12:44;;;;;;;41.43;3.60;;;14.20;56.10;;;;;;4970855;28;20426;-79
2021/12/25 10:15:13;;;;;;;27.60;3.20;;;;;;;;;;4971456;28;20434;-78
2021/12/25 10:17:45;;;;;;;38.67;2.97;;;14.30;55.70;;;;;;4970482;28;20558;-79
2021/12/25 10:20:13;;;;;;;47.83;3.67;;;;;;;;;;4970586;28;20426;-78
2021/12/25 10:23:06;;;;;;;36.23;3.50;;;14.10;55.80;;;;;;4970956;28;20447;-78
2021/12/25 10:25:38;;;;;;;34.47;2.90;;;;;;;;;;4970976;28;20992;-78
2021/12/25 10:28:09;;;;;;;25.07;2.57;;;14.70;52.20;;;;;;4970571;28;20418;-79
2021/12/25 10:30:58;;;;;;;31.93;2.60;;;;;;;;;;4971531;28;20949;-78
2021/12/25 10:33:23;;;;;;;39.30;3.00;;;;;;;;;;4970903;28;20412;-79
2021/12/25 10:35:49;;;;;;;30.27;2.53;;;;;;;;;;4971361;28;20454;-78
2021/12/25 10:38:17;;;;;;;28.57;2.43;;;;;;;;;;5005083;28;20470;-78
2021/12/25 10:40:43;;;;;;;18.63;2.33;;;14.60;53.60;;;;;;5032542;28;20494;-78
2021/12/25 10:43:20;;;;;;;23.00;2.20;;;14.80;54.70;;;;;;5032520;28;20439;-78
2021/12/25 10:45:58;;;;;;;26.33;2.47;;;;;;;;;;5034250;28;20435;-79
2021/12/25 10:48:29;;;;;;;37.37;2.63;;;;;;;;;;5033472;28;20674;-79
2021/12/25 10:50:55;;;;;;;30.93;2.67;;;14.70;54.50;;;;;;5031282;28;20488;-79
2021/12/25 10:53:26;;;;;;;34.70;2.87;;;;;;;;;;5032799;28;20457;-79
2021/12/25 10:56:03;;;;;;;45.27;3.07;;;14.60;54.60;;;;;;5032078;28;20495;-80
2021/12/25 10:58:29;;;;;;;43.97;3.50;;;;;;;;;;5028675;28;20500;-78
2021/12/25 11:00:55;;;;;;;36.60;2.70;;;;;;;;;;5031502;28;20504;-78
2021/12/25 11:03:29;;;;;;;34.93;2.53;;;;;;;;;;5033890;28;20413;-79
2021/12/25 11:06:00;;;;;;;36.90;2.93;;;;;;;;;;5034142;28;20433;-79
2021/12/25 11:08:27;;;;;;;24.83;2.70;;;;;;;;;;5033998;28;20443;-80
2021/12/25 11:11:06;;;;;;;34.57;2.67;;;14.50;52.20;;;;;;5034167;28;20480;-78
2021/12/25 11:13:48;;;;;;;29.37;2.47;;;;;;;;;;5034319;28;20735;-78
2021/12/25 11:19:14;;;;;;;26.10;2.37;;;14.30;52.00;;;;;;5035118;28;20398;-78
2021/12/25 11:21:52;;;;;;;37.37;2.90;;;14.20;53.70;;;;;;5035198;28;20429;-78
2021/12/25 11:24:26;;;;;;;28.60;2.30;;;14.50;52.20;;;;;;5035113;28;20416;-78
2021/12/25 11:26:51;;;;;;;26.50;2.47;;;14.80;51.60;;;;;;5035224;28;20407;-78
2021/12/25 11:29:18;;;;;;;23.67;2.40;;;;;;;;;;5034679;28;20410;-80
2021/12/25 11:31:45;;;;;;;30.27;2.70;;;;;;;;;;5034869;28;20538;-79
2021/12/25 11:34:12;;;;;;;19.50;2.10;;;;;;;;;;5034704;28;20839;-79
2021/12/25 11:36:42;;;;;;;32.50;2.97;;;;;;;;;;5034677;28;20488;-79
2021/12/25 11:39:08;;;;;;;51.83;3.20;;;15.30;49.50;;;;;;5033984;28;20406;-79
2021/12/25 11:41:35;;;;;;;41.07;2.83;;;;;;;;;;5035100;28;20409;-79
2021/12/25 11:44:06;;;;;;;20.10;2.17;;;;;;;;;;5034591;28;20395;-78
2021/12/25 11:46:44;;;;;;;50.50;2.90;;;14.60;51.50;;;;;;5034589;28;20413;-78
2021/12/25 11:49:15;;;;;;;23.43;2.37;;;15.00;49.30;;;;;;5034580;28;20419;-78
2021/12/25 11:51:44;;;;;;;26.67;2.60;;;;;;;;;;5034659;28;20462;-78
2021/12/25 11:57:21;;;;;;;38.50;2.80;;;15.30;46.10;;;;;;5036095;28;20392;-78
2021/12/25 11:59:50;;;;;;;30.73;2.70;;;14.60;48.70;;;;;;5054262;28;20413;-78
2021/12/25 12:02:34;;;;;;;37.43;2.50;;;;;;;;;;5054104;28;20421;-78
2021/12/25 12:05:20;;;;;;;42.30;2.73;;;;;;;;;;5053753;28;20428;-81
2021/12/25 12:08:07;;;;;;;41.53;3.20;;;;;;;;;;5053862;28;20724;-79
2021/12/25 12:10:55;;;;;;;23.53;2.30;;;;;;;;;;5052784;28;20478;-79
2021/12/25 12:13:23;;;;;;;26.60;2.60;;;15.10;47.20;;;;;;5052714;28;20418;-79
2021/12/25 12:15:54;;;;;;;44.10;3.17;;;15.00;47.50;;;;;;5053830;28;20520;-79
2021/12/25 12:18:27;;;;;;;18.03;2.37;;;;;;;;;;5053569;28;20439;-79
2021/12/25 12:21:04;;;;;;;30.13;2.87;;;;;;;;;;5054561;28;20404;-79
2021/12/25 12:26:44;;;;;;;41.50;2.80;;;14.70;48.10;;;;;;5014219;28;20947;-80
2021/12/25 12:29:10;;;;;;;27.17;2.63;;;14.60;47.40;;;;;;5014260;28;20469;-80
2021/12/25 12:31:41;;;;;;;30.20;2.33;;;;;;;;;;5014279;28;20457;-79
2021/12/25 12:34:31;;;;;;;38.53;2.43;;;15.20;45.50;;;;;;5015266;28;20420;-80
2021/12/25 12:37:16;;;;;;;36.27;2.37;;;15.10;46.20;;;;;;5015188;28;20418;-81
2021/12/25 12:39:42;;;;;;;29.70;2.47;;;;;;;;;;5015281;28;20823;-79
2021/12/25 12:42:11;;;;;;;26.97;2.27;;;15.00;46.00;;;;;;5015468;28;20412;-80
2021/12/25 12:44:37;;;;;;;26.47;2.40;;;;;;;;;;5014116;28;20438;-79
2021/12/25 12:47:07;;;;;;;20.93;2.20;;;;;;;;;;5014569;28;21309;-79
2021/12/25 12:49:39;;;;;;;31.67;2.20;;;15.10;45.60;;;;;;5014089;28;20413;-80
2021/12/25 12:52:12;;;;;;;28.77;2.37;;;14.80;47.80;;;;;;5011832;28;20419;-77
2021/12/25 12:54:59;;;;;;;23.03;2.03;;;;;;;;;;5010864;28;20430;-77
2021/12/25 12:57:28;;;;;;;34.27;2.43;;;;;;;;;;5005803;28;20415;-77
2021/12/25 12:59:56;;;;;;;15.50;1.77;;;;;;;;;;4993109;28;20429;-80
2021/12/25 13:02:24;;;;;;;27.07;2.77;;;14.90;47.00;;;;;;5019960;28;20422;-80
2021/12/25 13:04:52;;;;;;;26.27;2.10;;;;;;;;;;5035535;28;20514;-79
2021/12/25 13:07:20;;;;;;;26.47;2.17;;;;;;;;;;5035358;28;20407;-80
2021/12/25 13:09:55;;;;;;;31.83;2.57;;;14.50;48.00;;;;;;5034830;28;20459;-80
2021/12/25 13:12:50;;;;;;;29.77;2.30;;;14.90;47.50;;;;;;5034961;28;20854;-79
2021/12/25 13:15:26;;;;;;;23.00;2.10;;;;;;;;;;5034840;28;20811;-79
2021/12/25 13:18:00;;;;;;;34.90;2.50;;;14.50;50.20;;;;;;5033560;28;20446;-77
2021/12/25 13:20:35;;;;;;;31.03;2.23;;;;;;;;;;5032779;28;20559;-77
2021/12/25 13:23:04;;;;;;;32.80;3.13;;;14.50;52.10;;;;;;5032302;28;20418;-78
2021/12/25 13:25:30;;;;;;;21.33;1.90;;;14.30;52.00;;;;;;5032598;28;20443;-78
2021/12/25 13:27:58;;;;;;;33.97;2.50;;;14.30;53.40;;;;;;5032233;28;20417;-78
2021/12/25 13:30:25;;;;;;;24.37;2.37;;;;;;;;;;5031236;28;20456;-79
2021/12/25 13:32:51;;;;;;;31.30;2.30;;;;;;;;;;5034397;28;20468;-80
2021/12/25 13:35:21;;;;;;;26.00;2.17;;;;;;;;;;5033234;28;20539;-78
2021/12/25 13:37:56;;;;;;;39.97;2.67;;;14.30;54.50;;;;;;5033208;28;20900;-78
2021/12/25 13:40:22;;;;;;;23.57;2.50;;;;;;;;;;5061185;22;20510;-72
2021/12/25 13:42:49;;;;;;;28.63;2.70;;;;;;;;;;5043908;28;20891;-72
2021/12/25 13:45:15;;;;;;;15.87;2.03;;;;;;;;;;5051880;28;20407;-72
2021/12/25 13:47:41;;;;;;;22.97;2.20;;;;;;;;;;5050255;28;20460;-71
2021/12/25 13:50:10;;;;;;;20.60;3.83;;;14.00;56.60;;;;;;5051803;28;20483;-71
2021/12/25 13:52:40;;;;;;;19.17;2.07;;;14.30;55.50;;;;;;5051606;28;20403;-72
2021/12/25 13:55:16;;;;;;;19.30;2.27;;;;;;;;;;5051863;28;20502;-72
2021/12/25 13:57:49;;;;;;;31.00;2.93;;;14.30;55.90;;;;;;5051181;28;20489;-72
2021/12/25 14:00:17;;;;;;;21.93;2.30;;;;;;;;;;5051833;28;20838;-74
2021/12/25 14:02:47;;;;;;;29.10;2.83;;;14.20;56.00;;;;;;5051670;28;20407;-75
2021/12/25 14:05:15;;;;;;;21.30;2.20;;;14.10;56.40;;;;;;5050363;28;20506;-74
2021/12/25 14:07:41;;;;;;;12.60;2.00;;;;;;;;;;5051518;28;20418;-75
2021/12/25 14:10:18;;;;;;;24.00;2.60;;;14.20;56.20;;;;;;5050935;28;20494;-74
2021/12/25 14:12:51;;;;;;;26.07;2.43;;;;;;;;;;5050274;28;20417;-75
2021/12/25 14:15:19;;;;;;;21.33;2.20;;;14.20;56.10;;;;;;5050249;28;20423;-75
2021/12/25 14:17:46;;;;;;;24.00;2.50;;;;;;;;;;5049827;28;20917;-74
2021/12/25 14:20:19;;;;;;;28.77;3.10;;;14.00;56.40;;;;;;5051718;28;20512;-74
2021/12/25 14:22:48;;;;;;;31.27;3.00;;;14.00;56.80;;;;;;5051391;28;20423;-74
2021/12/25 14:25:21;;;;;;;9.53;1.97;;;14.00;57.10;;;;;;5051496;28;20422;-76
2021/12/25 14:28:19;;;;;;;25.40;2.77;;;14.00;57.10;;;;;;5051271;28;20449;-75
2021/12/25 14:31:03;;;;;;;22.00;2.60;;;13.90;57.60;;;;;;5050919;28;20466;-75
2021/12/25 14:33:30;;;;;;;16.77;2.00;;;14.00;57.30;;;;;;5051041;28;20411;-76
2021/12/25 14:35:56;;;;;;;21.57;2.50;;;;;;;;;;5052556;28;20497;-76
2021/12/25 14:38:22;;;;;;;33.30;2.80;;;;;;;;;;5053779;28;20414;-75
2021/12/25 14:40:51;;;;;;;23.17;3.53;;;14.10;56.80;;;;;;5054730;28;20895;-75
2021/12/25 14:43:18;;;;;;;20.23;2.50;;;;;;;;;;5054435;28;20536;-75
2021/12/25 14:45:49;;;;;;;39.80;3.40;;;;;;;;;;5053876;28;20438;-76
2021/12/25 14:48:25;;;;;;;29.37;2.70;;;;;;;;;;5053426;28;20411;-75
2021/12/25 14:51:00;;;;;;;24.77;2.30;;;13.70;58.00;;;;;;5055693;28;20462;-75
2021/12/25 14:53:27;;;;;;;17.20;2.17;;;13.70;58.20;;;;;;5054882;28;20762;-76
2021/12/25 14:55:55;;;;;;;30.20;3.30;;;;;;;;;;5055034;28;20796;-74
2021/12/25 14:58:28;;;;;;;22.40;2.30;;;13.70;58.20;;;;;;5067022;28;20419;-76
2021/12/25 15:01:08;;;;;;;37.37;2.83;;;;;;;;;;5074829;28;20851;-76
2021/12/25 15:03:34;;;;;;;40.43;3.10;;;;;;;;;;5071778;28;20405;-75
2021/12/25 15:06:01;;;;;;;50.80;3.40;;;;;;;;;;5070172;28;20835;-75
2021/12/25 15:08:33;;;;;;;30.20;2.93;;;13.70;57.60;;;;;;5073099;28;20796;-75
2021/12/25 15:11:05;;;;;;;11.10;1.77;;;;;;;;;;5073745;28;20467;-74
2021/12/25 15:13:31;;;;;;;20.90;2.30;;;;;;;;;;5073645;28;20500;-76
2021/12/25 15:15:59;;;;;;;26.57;5.07;;;13.80;56.90;;;;;;5075243;28;20406;-75
2021/12/25 15:18:30;;;;;;;22.80;5.50;;;13.70;57.20;;;;;;5074776;28;20406;-76
2021/12/25 15:21:13;;;;;;;27.63;5.37;;;13.60;57.00;;;;;;5074988;28;20430;-75
2021/12/25 15:23:39;;;;;;;29.43;6.17;;;;;;;;;;5075448;28;20421;-75
2021/12/25 15:26:12;;;;;;;32.00;4.10;;;13.60;57.10;;;;;;5075096;28;20832;-75